createdAt,value
2022-10-30T00:00:53.413Z,98049.84
2022-10-30T00:02:56.581Z,98034.19
2022-10-30T00:04:59.514Z,98031.66
2022-10-30T00:07:02.059Z,98035.66
2022-10-30T00:09:04.696Z,98030.25
2022-10-30T00:11:10.253Z,98027.84
2022-10-30T00:13:14.206Z,98024.03
2022-10-30T00:15:17.027Z,98018.31
2022-10-30T00:17:19.563Z,98010.47
2022-10-30T00:19:22.200Z,97999.81
2022-10-30T00:21:24.720Z,98000.91
2022-10-30T00:23:27.310Z,97994.56
2022-10-30T00:25:29.900Z,97989.94
2022-10-30T00:27:32.526Z,97989.78
2022-10-30T00:29:35.143Z,97977.50
2022-10-30T00:31:37.723Z,97970.78
2022-10-30T00:33:40.292Z,97970.66
2022-10-30T00:35:48.931Z,97965.44
2022-10-30T00:37:51.538Z,97956.50
2022-10-30T00:39:54.179Z,97951.88
2022-10-30T00:41:56.745Z,97951.56
2022-10-30T00:43:59.333Z,97940.72
2022-10-30T00:46:37.088Z,97951.25
2022-10-30T00:48:39.849Z,97942.34
2022-10-30T00:50:42.530Z,97940.91
2022-10-30T00:53:12.951Z,97934.19
2022-10-30T00:55:21.321Z,97930.84
2022-10-30T00:57:24.681Z,97935.97
2022-10-30T00:59:32.088Z,97924.31
2022-10-30T01:01:42.846Z,97923.81
2022-10-30T01:03:47.002Z,97929.72
2022-10-30T01:05:53.850Z,97919.09
2022-10-30T01:07:56.817Z,97910.16
2022-10-30T01:10:00.175Z,97920.66
2022-10-30T01:12:02.771Z,97917.97
2022-10-30T01:14:08.779Z,97911.13
2022-10-30T01:16:26.512Z,97908.72
2022-10-30T01:18:50.656Z,97891.66
2022-10-30T01:21:05.647Z,97900.25
2022-10-30T01:23:20.198Z,97892.63
2022-10-30T01:25:49.626Z,97888.00
2022-10-30T01:28:08.665Z,97887.53
2022-10-30T01:30:26.354Z,97881.78
2022-10-30T01:32:58.305Z,97864.56
2022-10-30T01:35:34.704Z,97866.78
2022-10-30T01:37:46.061Z,97851.00
2022-10-30T01:39:48.721Z,97852.63
2022-10-30T01:41:51.302Z,97851.78
2022-10-30T01:43:59.080Z,97854.41
2022-10-30T01:46:10.405Z,97845.13
2022-10-30T01:48:22.985Z,97847.53
2022-10-30T01:50:45.456Z,97836.69
2022-10-30T01:53:25.738Z,97837.97
2022-10-30T01:55:37.859Z,97829.84
2022-10-30T01:57:47.751Z,97822.50
2022-10-30T02:00:03.147Z,97817.25
2022-10-30T02:02:08.408Z,97817.56
2022-10-30T02:04:13.170Z,97811.50
2022-10-30T02:06:15.857Z,97807.69
2022-10-30T02:08:19.248Z,97803.53
2022-10-30T02:10:21.897Z,97800.97
2022-10-30T02:12:24.848Z,97793.19
2022-10-30T02:14:52.049Z,97796.34
2022-10-30T02:16:58.874Z,97781.69
2022-10-30T02:19:02.851Z,97773.25
2022-10-30T02:21:06.776Z,97770.53
2022-10-30T02:23:13.614Z,97758.22
2022-10-30T02:25:16.601Z,97748.31
2022-10-30T02:27:19.345Z,97757.59
2022-10-30T02:29:22.052Z,97752.97
2022-10-30T02:31:24.632Z,97758.09
2022-10-30T02:33:27.320Z,97755.03
2022-10-30T02:35:30.693Z,97739.38
2022-10-30T02:37:35.775Z,97747.72
2022-10-30T02:39:38.349Z,97738.44
2022-10-30T02:41:40.968Z,97735.09
2022-10-30T02:43:43.507Z,97717.22
2022-10-30T02:45:52.084Z,97720.22
2022-10-30T02:47:54.768Z,97716.09
2022-10-30T02:49:57.463Z,97718.00
2022-10-30T02:52:00.136Z,97709.56
2022-10-30T02:54:02.713Z,97703.00
2022-10-30T02:56:07.014Z,97699.00
2022-10-30T02:58:10.543Z,97686.56
2022-10-30T03:00:13.806Z,97680.81
2022-10-30T03:02:16.652Z,97685.59
2022-10-30T03:04:19.395Z,97685.59
2022-10-30T03:06:22.080Z,97679.38
2022-10-30T03:08:24.758Z,97671.25
2022-10-30T03:10:27.380Z,97659.75
2022-10-30T03:12:30.002Z,97664.53
2022-10-30T03:14:32.935Z,97658.78
2022-10-30T03:16:37.108Z,97658.44
2022-10-30T03:18:40.502Z,97653.00
2022-10-30T03:20:43.039Z,97652.56
2022-10-30T03:22:45.818Z,97642.50
2022-10-30T03:24:48.314Z,97632.75
2022-10-30T03:26:50.970Z,97634.34
2022-10-30T03:28:53.493Z,97636.28
2022-10-30T03:31:04.157Z,97632.44
2022-10-30T03:33:06.852Z,97618.53
2022-10-30T03:35:09.462Z,97625.88
2022-10-30T03:37:12.005Z,97621.09
2022-10-30T03:39:14.635Z,97615.00
2022-10-30T03:41:17.340Z,97619.16
2022-10-30T03:43:20.025Z,97618.53
2022-10-30T03:45:22.627Z,97619.34
2022-10-30T03:47:25.175Z,97609.13
2022-10-30T03:49:27.725Z,97616.63
2022-10-30T03:51:30.290Z,97612.78
2022-10-30T03:53:32.836Z,97604.63
2022-10-30T03:55:35.459Z,97601.59
2022-10-30T03:57:38.652Z,97595.69
2022-10-30T03:59:41.590Z,97588.81
2022-10-30T04:01:44.335Z,97581.47
2022-10-30T04:03:47.126Z,97576.03
2022-10-30T04:05:53.054Z,97577.97
2022-10-30T04:07:57.310Z,97569.03
2022-10-30T04:09:59.935Z,97558.16
2022-10-30T04:12:02.584Z,97560.56
2022-10-30T04:14:05.270Z,97561.03
2022-10-30T04:16:08.077Z,97547.44
2022-10-30T04:18:14.322Z,97543.63
2022-10-30T04:20:17.484Z,97532.75
2022-10-30T04:22:20.042Z,97532.44
2022-10-30T04:24:22.856Z,97520.47
2022-10-30T04:26:25.398Z,97528.28
2022-10-30T04:28:28.058Z,97516.28
2022-10-30T04:30:35.482Z,97518.53
2022-10-30T04:32:45.846Z,97522.03
2022-10-30T04:34:48.344Z,97510.69
2022-10-30T04:36:50.984Z,97506.88
2022-10-30T04:38:53.485Z,97501.91
2022-10-30T04:40:56.066Z,97488.47
2022-10-30T04:42:59.311Z,97493.41
2022-10-30T04:45:05.083Z,97485.28
2022-10-30T04:47:07.773Z,97494.19
2022-10-30T04:49:10.512Z,97475.84
2022-10-30T04:51:13.077Z,97487.00
2022-10-30T04:53:19.271Z,97480.94
2022-10-30T04:55:21.981Z,97479.50
2022-10-30T04:57:24.628Z,97482.38
2022-10-30T04:59:27.902Z,97480.94
2022-10-30T05:01:30.993Z,97472.31
2022-10-30T05:03:34.144Z,97466.53
2022-10-30T05:05:36.710Z,97464.19
2022-10-30T05:07:39.422Z,97464.66
2022-10-30T05:09:41.993Z,97467.69
2022-10-30T05:11:44.525Z,97454.88
2022-10-30T05:13:47.190Z,97461.94
2022-10-30T05:15:50.171Z,97456.50
2022-10-30T05:17:54.409Z,97448.00
2022-10-30T05:19:57.040Z,97442.91
2022-10-30T05:21:59.725Z,97432.84
2022-10-30T05:24:02.539Z,97444.97
2022-10-30T05:26:05.283Z,97427.53
2022-10-30T05:28:07.965Z,97432.19
2022-10-30T05:30:11.089Z,97429.16
2022-10-30T05:34:17.316Z,97428.47
2022-10-30T05:36:20.118Z,97416.03
2022-10-30T05:38:22.829Z,97430.72
2022-10-30T05:40:25.583Z,97428.47
2022-10-30T05:42:28.154Z,97417.16
2022-10-30T05:44:58.701Z,97412.84
2022-10-30T05:46:53.447Z,97389.97
2022-10-30T05:48:56.032Z,97405.97
2022-10-30T05:50:58.747Z,97401.31
2022-10-30T05:53:03.643Z,97398.59
2022-10-30T05:55:06.625Z,97398.59
2022-10-30T05:57:09.347Z,97405.63
2022-10-30T05:59:12.031Z,97386.59
2022-10-30T06:01:14.709Z,97379.59
2022-10-30T06:03:18.460Z,97388.69
2022-10-30T06:05:21.076Z,97372.84
2022-10-30T06:07:23.883Z,97382.25
2022-10-30T06:09:26.540Z,97380.81
2022-10-30T06:11:29.169Z,97367.22
2022-10-30T06:13:31.860Z,97352.84
2022-10-30T06:15:34.509Z,97360.31
2022-10-30T06:17:37.096Z,97356.00
2022-10-30T06:19:39.809Z,97344.34
2022-10-30T06:21:42.484Z,97334.72
2022-10-30T06:23:45.037Z,97334.28
2022-10-30T06:25:48.386Z,97328.97
2022-10-30T06:27:51.398Z,97329.66
2022-10-30T06:29:55.112Z,97328.19
2022-10-30T06:31:59.748Z,97308.81
2022-10-30T06:34:05.575Z,97299.34
2022-10-30T06:36:08.383Z,97288.94
2022-10-30T06:38:12.308Z,97292.91
2022-10-30T06:40:16.099Z,97300.06
2022-10-30T06:42:18.718Z,97295.44
2022-10-30T06:44:21.376Z,97300.06
2022-10-30T06:46:27.055Z,97292.72
2022-10-30T06:48:33.391Z,97290.00
2022-10-30T06:50:36.030Z,97279.91
2022-10-30T06:52:38.942Z,97277.00
2022-10-30T06:54:41.708Z,97275.41
2022-10-30T06:56:44.386Z,97257.97
2022-10-30T06:58:47.016Z,97258.41
2022-10-30T07:03:00.708Z,97258.41
2022-10-30T07:05:04.404Z,97254.13
2022-10-30T07:07:07.007Z,97242.09
2022-10-30T07:09:09.695Z,97241.31
2022-10-30T07:11:12.293Z,97236.88
2022-10-30T07:13:15.044Z,97238.97
2022-10-30T07:15:17.732Z,97228.75
2022-10-30T07:17:20.343Z,97218.66
2022-10-30T07:19:23.753Z,97229.19
2022-10-30T07:21:27.163Z,97231.13
2022-10-30T07:23:29.761Z,97214.59
2022-10-30T07:25:32.388Z,97211.88
2022-10-30T07:27:43.125Z,97212.44
2022-10-30T07:29:45.743Z,97205.06
2022-10-30T07:32:01.818Z,97194.56
2022-10-30T07:34:05.513Z,97196.91
2022-10-30T07:36:08.881Z,97191.84
2022-10-30T07:38:14.432Z,97178.72
2022-10-30T07:40:17.176Z,97190.94
2022-10-30T07:42:19.791Z,97173.72
2022-10-30T07:44:22.544Z,97188.56
2022-10-30T07:46:25.164Z,97185.84
2022-10-30T07:48:27.749Z,97184.25
2022-10-30T07:50:30.583Z,97170.09
2022-10-30T07:52:33.621Z,97160.56
2022-10-30T07:54:36.280Z,97174.63
2022-10-30T07:56:38.939Z,97160.38
2022-10-30T07:58:45.448Z,97163.19
2022-10-30T08:00:48.778Z,97162.41
2022-10-30T08:02:56.173Z,97149.28
2022-10-30T08:04:59.595Z,97152.78
2022-10-30T08:07:02.161Z,97152.91
2022-10-30T08:09:04.811Z,97142.69
2022-10-30T08:11:07.415Z,97143.94
2022-10-30T08:13:10.010Z,97139.75
2022-10-30T08:15:12.788Z,97133.06
2022-10-30T08:17:15.537Z,97138.97
2022-10-30T08:19:18.124Z,97129.78
2022-10-30T08:21:21.114Z,97122.78
2022-10-30T08:23:23.673Z,97113.47
2022-10-30T08:25:29.136Z,97119.69
2022-10-30T08:27:31.872Z,97108.84
2022-10-30T08:29:37.133Z,97106.81
2022-10-30T08:31:39.732Z,97095.94
2022-10-30T08:33:42.388Z,97089.00
2022-10-30T08:35:52.902Z,97100.00
2022-10-30T08:37:59.955Z,97086.88
2022-10-30T08:40:21.010Z,97089.13
2022-10-30T08:42:42.434Z,97089.13
2022-10-30T08:45:03.674Z,97072.81
2022-10-30T08:47:07.065Z,97076.00
2022-10-30T08:49:09.727Z,97073.38
2022-10-30T08:51:49.553Z,97058.63
2022-10-30T08:53:52.158Z,97062.94
2022-10-30T08:56:13.163Z,97060.47
2022-10-30T08:58:15.874Z,97049.59
2022-10-30T09:01:00.280Z,97045.84
2022-10-30T09:03:25.117Z,97034.16
2022-10-30T09:05:27.790Z,97034.63
2022-10-30T09:07:50.501Z,97035.44
2022-10-30T09:09:53.246Z,97019.56
2022-10-30T09:12:14.387Z,97031.91
2022-10-30T09:14:35.342Z,97022.16
2022-10-30T09:16:38.037Z,97016.41
2022-10-30T09:18:41.609Z,97012.84
2022-10-30T09:21:04.942Z,97007.78
2022-10-30T09:23:08.926Z,97009.34
2022-10-30T09:25:11.965Z,96994.97
2022-10-30T09:27:15.520Z,96990.78
2022-10-30T09:29:18.385Z,96981.47
2022-10-30T09:31:21.037Z,96985.66
2022-10-30T09:33:24.121Z,96972.06
2022-10-30T09:35:27.079Z,96977.19
2022-10-30T09:37:34.353Z,96969.00
2022-10-30T09:39:37.083Z,96964.03
2022-10-30T09:42:10.436Z,96966.41
2022-10-30T09:44:31.295Z,96961.31
2022-10-30T09:47:04.514Z,96955.28
2022-10-30T09:49:36.042Z,96937.75
2022-10-30T09:52:03.007Z,96941.13
2022-10-30T09:54:37.274Z,96942.28
2022-10-30T09:56:59.412Z,96937.97
2022-10-30T09:59:32.972Z,96928.75
2022-10-30T10:02:31.137Z,96932.31
2022-10-30T10:04:44.073Z,96928.69
2022-10-30T10:06:52.553Z,96916.31
2022-10-30T10:09:04.063Z,96920.97
2022-10-30T10:11:33.779Z,96919.81
2022-10-30T10:13:42.617Z,96902.72
2022-10-30T10:15:54.145Z,96905.97
2022-10-30T10:18:02.028Z,96894.75
2022-10-30T10:20:06.308Z,96898.25
2022-10-30T10:22:26.282Z,96885.44
2022-10-30T10:24:44.634Z,96880.72
2022-10-30T10:26:53.509Z,96890.47
2022-10-30T10:29:02.041Z,96890.09
2022-10-30T10:31:29.525Z,96884.66
2022-10-30T10:34:07.129Z,96879.22
2022-10-30T10:36:25.104Z,96866.06
2022-10-30T10:38:56.836Z,96864.13
2022-10-30T10:41:13.253Z,96858.69
2022-10-30T10:44:03.626Z,96839.66
2022-10-30T10:46:39.322Z,96853.69
2022-10-30T10:48:48.826Z,96852.13
2022-10-30T10:51:22.493Z,96856.09
2022-10-30T10:53:34.121Z,96856.88
2022-10-30T10:55:39.190Z,96844.41
2022-10-30T10:57:43.762Z,96838.16
2022-10-30T11:00:11.312Z,96833.97
2022-10-30T11:02:37.791Z,96833.16
2022-10-30T11:04:43.675Z,96831.69
2022-10-30T11:06:53.647Z,96824.56
2022-10-30T11:09:13.614Z,96821.44
2022-10-30T11:11:16.988Z,96820.38
2022-10-30T11:13:38.922Z,96814.56
2022-10-30T11:15:44.336Z,96812.75
2022-10-30T11:18:01.311Z,96801.09
2022-10-30T11:20:19.101Z,96802.66
2022-10-30T11:22:28.789Z,96787.47
2022-10-30T11:24:36.283Z,96789.84
2022-10-30T11:26:39.077Z,96786.78
2022-10-30T11:28:52.851Z,96795.81
2022-10-30T11:31:36.511Z,96779.56
2022-10-30T11:33:57.747Z,96783.06
2022-10-30T11:36:28.012Z,96785.00
2022-10-30T11:38:31.252Z,96772.63
2022-10-30T11:40:34.816Z,96768.00
2022-10-30T11:42:45.111Z,96770.72
2022-10-30T11:44:52.239Z,96759.91
2022-10-30T11:46:55.662Z,96754.03
2022-10-30T11:49:16.516Z,96754.75
2022-10-30T11:51:35.372Z,96749.38
2022-10-30T11:54:02.155Z,96747.69
2022-10-30T11:56:16.516Z,96742.03
2022-10-30T11:59:01.308Z,96752.91
2022-10-30T12:01:14.117Z,96742.69
2022-10-30T12:03:48.509Z,96753.69
2022-10-30T12:05:51.103Z,96750.25
2022-10-30T12:08:34.972Z,96751.47
2022-10-30T12:11:11.389Z,96736.75
2022-10-30T12:13:19.519Z,96741.56
2022-10-30T12:15:27.929Z,96720.56
2022-10-30T12:17:52.263Z,96711.97
2022-10-30T12:20:32.022Z,96710.47
2022-10-30T12:23:11.971Z,96713.53
2022-10-30T12:25:23.547Z,96709.97
2022-10-30T12:27:27.254Z,96706.88
2022-10-30T12:30:24.923Z,96714.25
2022-10-30T12:32:39.719Z,96694.78
2022-10-30T12:35:10.691Z,96704.53
2022-10-30T12:37:25.957Z,96695.56
2022-10-30T12:39:55.541Z,96694.84
2022-10-30T12:42:23.334Z,96692.13
2022-10-30T12:44:30.972Z,96691.75
2022-10-30T12:46:58.003Z,96685.97
2022-10-30T12:49:09.708Z,96688.69
2022-10-30T12:51:43.358Z,96685.63
2022-10-30T12:54:00.764Z,96679.31
2022-10-30T12:56:13.625Z,96680.19
2022-10-30T12:58:43.090Z,96682.25
2022-10-30T13:01:17.683Z,96672.97
2022-10-30T13:03:55.056Z,96660.47
2022-10-30T13:06:24.812Z,96677.63
2022-10-30T13:08:45.980Z,96668.66
2022-10-30T13:11:03.790Z,96676.91
2022-10-30T13:13:19.071Z,96667.97
2022-10-30T13:15:48.676Z,96671.19
2022-10-30T13:17:51.561Z,96674.69
2022-10-30T13:19:55.137Z,96666.94
2022-10-30T13:22:26.634Z,96662.28
2022-10-30T13:25:20.766Z,96662.72
2022-10-30T13:27:46.137Z,96653.00
2022-10-30T13:30:03.453Z,96653.47
2022-10-30T13:32:12.195Z,96658.59
2022-10-30T13:34:48.389Z,96655.91
2022-10-30T13:37:01.131Z,96656.34
2022-10-30T13:39:37.183Z,96645.03
2022-10-30T13:42:01.465Z,96637.66
2022-10-30T13:44:45.208Z,96642.69
2022-10-30T13:47:12.343Z,96629.84
2022-10-30T13:49:26.001Z,96632.91
2022-10-30T13:51:35.056Z,96632.50
2022-10-30T13:53:59.180Z,96628.69
2022-10-30T13:56:02.665Z,96622.13
2022-10-30T13:58:17.372Z,96626.34
2022-10-30T14:00:21.726Z,96618.59
2022-10-30T14:02:45.983Z,96620.59
2022-10-30T14:05:26.217Z,96622.16
2022-10-30T14:07:50.232Z,96614.81
2022-10-30T14:10:11.128Z,96619.88
2022-10-30T14:13:11.094Z,96610.16
2022-10-30T14:15:31.840Z,96610.94
2022-10-30T14:18:30.447Z,96629.22
2022-10-30T14:20:52.785Z,96623.47
2022-10-30T14:23:13.425Z,96622.75
2022-10-30T14:25:35.141Z,96627.50
2022-10-30T14:27:37.724Z,96622.53
2022-10-30T14:29:47.057Z,96607.75
2022-10-30T14:32:07.984Z,96616.09
2022-10-30T14:34:42.372Z,96600.94
2022-10-30T14:36:44.920Z,96610.69
2022-10-30T14:39:20.597Z,96602.50
2022-10-30T14:42:05.373Z,96605.72
2022-10-30T14:44:29.368Z,96595.31
2022-10-30T14:46:44.275Z,96601.97
2022-10-30T14:49:13.057Z,96595.00
2022-10-30T14:51:36.443Z,96594.31
2022-10-30T14:53:55.179Z,96591.66
2022-10-30T14:58:27.667Z,96584.75
2022-10-30T15:00:35.839Z,96577.00
2022-10-30T15:03:02.750Z,96571.94
2022-10-30T15:05:42.029Z,96582.44
2022-10-30T15:08:22.188Z,96576.56
2022-10-30T15:10:53.500Z,96586.38
2022-10-30T15:13:22.192Z,96581.34
2022-10-30T15:15:25.238Z,96581.84
2022-10-30T15:17:41.128Z,96576.03
2022-10-30T15:19:43.820Z,96576.88
2022-10-30T15:21:54.109Z,96569.47
2022-10-30T15:23:59.657Z,96580.03
2022-10-30T15:26:09.775Z,96566.38
2022-10-30T15:30:33.972Z,96569.16
2022-10-30T15:32:41.135Z,96567.28
2022-10-30T15:35:05.184Z,96571.63
2022-10-30T15:37:31.586Z,96565.41
2022-10-30T15:39:34.197Z,96567.38
2022-10-30T15:41:48.920Z,96562.00
2022-10-30T15:43:51.510Z,96564.00
2022-10-30T15:45:55.927Z,96561.75
2022-10-30T15:48:19.597Z,96558.28
2022-10-30T15:50:43.104Z,96561.78
2022-10-30T15:52:46.325Z,96568.88
2022-10-30T15:54:55.372Z,96570.50
2022-10-30T15:57:36.499Z,96551.03
2022-10-30T15:59:42.741Z,96551.50
2022-10-30T16:02:05.286Z,96543.00
2022-10-30T16:04:35.373Z,96550.06
2022-10-30T16:06:38.013Z,96546.19
2022-10-30T16:08:46.538Z,96550.13
2022-10-30T16:10:52.840Z,96550.56
2022-10-30T16:12:57.770Z,96556.00
2022-10-30T16:15:18.136Z,96544.75
2022-10-30T16:17:21.440Z,96556.09
2022-10-30T16:19:30.388Z,96553.75
2022-10-30T16:21:51.543Z,96549.47
2022-10-30T16:24:12.835Z,96553.88
2022-10-30T16:26:30.244Z,96552.28
2022-10-30T16:29:09.973Z,96557.38
2022-10-30T16:31:16.181Z,96554.69
2022-10-30T16:33:25.360Z,96553.16
2022-10-30T16:35:53.061Z,96558.25
2022-10-30T16:38:16.853Z,96555.53
2022-10-30T16:40:28.470Z,96549.72
2022-10-30T16:42:49.769Z,96550.56
2022-10-30T16:45:13.476Z,96545.53
2022-10-30T16:47:37.683Z,96542.47
2022-10-30T16:50:02.531Z,96551.06
2022-10-30T16:52:07.867Z,96548.38
2022-10-30T16:54:47.580Z,96544.91
2022-10-30T16:56:53.253Z,96551.16
2022-10-30T16:59:34.689Z,96555.44
2022-10-30T17:01:58.257Z,96556.56
2022-10-30T17:04:01.413Z,96551.91
2022-10-30T17:06:39.975Z,96567.13
2022-10-30T17:09:01.106Z,96567.06
2022-10-30T17:11:34.393Z,96570.53
2022-10-30T17:13:55.544Z,96565.88
2022-10-30T17:15:59.676Z,96563.53
2022-10-30T17:18:14.194Z,96558.44
2022-10-30T17:20:19.748Z,96571.31
2022-10-30T17:22:41.249Z,96562.69
2022-10-30T17:25:02.218Z,96559.13
2022-10-30T17:27:22.471Z,96590.28
2022-10-30T17:30:03.239Z,96570.66
2022-10-30T17:32:23.330Z,96570.94
2022-10-30T17:34:25.919Z,96574.38
2022-10-30T17:36:46.816Z,96580.16
2022-10-30T17:39:07.834Z,96555.78
2022-10-30T17:41:29.637Z,96568.13
2022-10-30T17:43:35.903Z,96567.34
2022-10-30T17:45:57.296Z,96571.19
2022-10-30T17:48:00.191Z,96559.81
2022-10-30T17:50:05.617Z,96560.47
2022-10-30T17:52:26.777Z,96558.44
2022-10-30T17:54:47.886Z,96561.91
2022-10-30T17:56:51.114Z,96563.00
2022-10-30T17:58:54.695Z,96573.41
2022-10-30T18:00:58.489Z,96551.56
2022-10-30T18:03:01.632Z,96562.78
2022-10-30T18:05:17.874Z,96563.13
2022-10-30T18:07:20.628Z,96569.66
2022-10-30T18:09:23.231Z,96561.84
2022-10-30T18:11:27.275Z,96563.00
2022-10-30T18:14:07.255Z,96568.81
2022-10-30T18:16:11.201Z,96549.56
2022-10-30T18:18:13.822Z,96546.84
2022-10-30T18:20:16.486Z,96546.84
2022-10-30T18:22:37.761Z,96533.91
2022-10-30T18:24:40.411Z,96544.41
2022-10-30T18:26:43.073Z,96552.59
2022-10-30T18:28:46.332Z,96563.06
2022-10-30T18:30:54.508Z,96556.00
2022-10-30T18:32:57.903Z,96552.16
2022-10-30T18:35:00.907Z,96549.66
2022-10-30T18:37:03.480Z,96556.31
2022-10-30T18:39:06.049Z,96553.25
2022-10-30T18:41:23.102Z,96563.75
2022-10-30T18:43:25.712Z,96557.91
2022-10-30T18:45:37.699Z,96550.00
2022-10-30T18:47:40.356Z,96553.47
2022-10-30T18:49:43.116Z,96568.25
2022-10-30T18:51:46.342Z,96565.44
2022-10-30T18:53:52.311Z,96552.63
2022-10-30T18:55:55.278Z,96555.34
2022-10-30T18:57:58.072Z,96561.59
2022-10-30T19:00:04.287Z,96553.78
2022-10-30T19:02:22.139Z,96553.44
2022-10-30T19:04:24.871Z,96560.88
2022-10-30T19:06:27.501Z,96548.81
2022-10-30T19:08:30.047Z,96556.94
2022-10-30T19:10:35.566Z,96549.53
2022-10-30T19:12:42.158Z,96546.38
2022-10-30T19:14:45.132Z,96553.00
2022-10-30T19:17:06.446Z,96549.88
2022-10-30T19:19:09.001Z,96547.97
2022-10-30T19:21:35.440Z,96538.22
2022-10-30T19:23:38.219Z,96537.06
2022-10-30T19:25:44.423Z,96540.59
2022-10-30T19:27:47.070Z,96529.25
2022-10-30T19:29:49.716Z,96526.19
2022-10-30T19:31:52.937Z,96526.53
2022-10-30T19:33:57.337Z,96519.16
2022-10-30T19:36:04.815Z,96519.50
2022-10-30T19:38:10.946Z,96523.38
2022-10-30T19:40:21.221Z,96527.38
2022-10-30T19:42:24.107Z,96529.69
2022-10-30T19:44:46.042Z,96538.22
2022-10-30T19:46:48.755Z,96539.00
2022-10-30T19:48:59.637Z,96541.72
2022-10-30T19:51:03.874Z,96545.66
2022-10-30T19:53:07.881Z,96537.91
2022-10-30T19:55:29.360Z,96541.78
2022-10-30T19:57:32.167Z,96542.88
2022-10-30T19:59:34.896Z,96526.84
2022-10-30T20:01:56.151Z,96530.00
2022-10-30T20:04:00.120Z,96528.75
2022-10-30T20:06:02.956Z,96539.16
2022-10-30T20:08:06.757Z,96544.28
2022-10-30T20:10:19.259Z,96547.69
2022-10-30T20:12:21.801Z,96541.41
2022-10-30T20:14:24.378Z,96537.75
2022-10-30T20:16:27.027Z,96533.78
2022-10-30T20:18:32.228Z,96529.44
2022-10-30T20:20:35.723Z,96532.56
2022-10-30T20:22:38.334Z,96530.97
2022-10-30T20:24:40.975Z,96525.91
2022-10-30T20:26:43.588Z,96537.13
2022-10-30T20:28:46.538Z,96532.03
2022-10-30T20:30:50.351Z,96524.59
2022-10-30T20:32:52.925Z,96531.63
2022-10-30T20:34:55.527Z,96530.41
2022-10-30T20:36:58.071Z,96535.06
2022-10-30T20:39:00.720Z,96542.78
2022-10-30T20:41:05.088Z,96543.88
2022-10-30T20:43:13.983Z,96547.41
2022-10-30T20:45:19.405Z,96542.31
2022-10-30T20:47:22.022Z,96542.31
2022-10-30T20:49:24.536Z,96553.97
2022-10-30T20:51:27.119Z,96541.97
2022-10-30T20:53:30.345Z,96546.25
2022-10-30T20:55:35.871Z,96553.19
2022-10-30T20:57:39.235Z,96541.44
2022-10-30T20:59:41.840Z,96543.38
2022-10-30T21:01:44.683Z,96552.41
2022-10-30T21:04:05.826Z,96548.53
2022-10-30T21:06:10.099Z,96550.69
2022-10-30T21:08:33.153Z,96556.22
2022-10-30T21:10:39.336Z,96542.16
2022-10-30T21:12:42.208Z,96548.84
2022-10-30T21:15:03.484Z,96542.22
2022-10-30T21:17:06.496Z,96537.50
2022-10-30T21:19:09.115Z,96541.00
2022-10-30T21:21:30.385Z,96540.66
2022-10-30T21:23:33.013Z,96542.91
2022-10-30T21:26:05.155Z,96540.97
2022-10-30T21:28:26.074Z,96542.81
2022-10-30T21:31:06.227Z,96545.88
2022-10-30T21:33:08.883Z,96534.22
2022-10-30T21:35:11.398Z,96539.66
2022-10-30T21:37:14.001Z,96529.22
2022-10-30T21:39:35.022Z,96535.50
2022-10-30T21:42:14.968Z,96527.34
2022-10-30T21:44:17.535Z,96533.56
2022-10-30T21:46:38.971Z,96528.13
2022-10-30T21:49:18.489Z,96528.06
2022-10-30T21:51:40.585Z,96524.13
2022-10-30T21:53:44.534Z,96520.63
2022-10-30T21:55:47.066Z,96524.94
2022-10-30T21:57:49.605Z,96515.94
2022-10-30T21:59:52.198Z,96512.78
2022-10-30T22:01:54.868Z,96510.44
2022-10-30T22:04:00.101Z,96517.41
2022-10-30T22:06:07.778Z,96520.81
2022-10-30T22:08:10.461Z,96519.59
2022-10-30T22:10:13.326Z,96524.25
2022-10-30T22:12:34.323Z,96520.81
2022-10-30T22:14:37.009Z,96535.66
2022-10-30T22:16:40.257Z,96526.34
2022-10-30T22:18:42.905Z,96525.91
2022-10-30T22:21:22.774Z,96534.50
2022-10-30T22:24:03.059Z,96530.56
2022-10-30T22:26:15.241Z,96536.31
2022-10-30T22:28:55.233Z,96523.47
2022-10-30T22:31:10.554Z,96531.56
2022-10-30T22:33:13.113Z,96528.50
2022-10-30T22:35:15.723Z,96535.09
2022-10-30T22:37:37.116Z,96534.38
2022-10-30T22:40:35.932Z,96533.16
2022-10-30T22:43:15.616Z,96534.13
2022-10-30T22:45:37.127Z,96544.03
2022-10-30T22:47:58.694Z,96543.59
2022-10-30T22:50:20.140Z,96552.00
2022-10-30T22:52:22.667Z,96543.44
2022-10-30T22:55:02.814Z,96537.47
2022-10-30T22:57:05.816Z,96543.97
2022-10-30T22:59:46.166Z,96541.25
2022-10-30T23:02:25.676Z,96546.97
2022-10-30T23:05:24.807Z,96541.81
2022-10-30T23:08:04.394Z,96546.97
2022-10-30T23:10:07.862Z,96541.09
2022-10-30T23:12:47.673Z,96543.81
2022-10-30T23:15:27.778Z,96544.91
2022-10-30T23:18:10.477Z,96549.53
2022-10-30T23:20:47.914Z,96536.22
2022-10-30T23:23:27.352Z,96545.88
2022-10-30T23:25:29.884Z,96547.09
2022-10-30T23:27:50.819Z,96551.31
2022-10-30T23:30:11.933Z,96547.25
2022-10-30T23:32:33.137Z,96549.13
2022-10-30T23:34:54.388Z,96550.19
2022-10-30T23:37:15.915Z,96562.88
2022-10-30T23:39:37.018Z,96564.63
2022-10-30T23:41:58.167Z,96563.31
2022-10-30T23:44:20.531Z,96580.56
2022-10-30T23:47:00.531Z,96571.09
2022-10-30T23:49:21.447Z,96577.50
2022-10-30T23:51:24.545Z,96589.41
2022-10-30T23:53:27.200Z,96571.06
2022-10-30T23:55:52.750Z,96562.41
2022-10-30T23:58:13.966Z,96566.94
